createdAt,value
2023-02-17T00:00:05.000Z,98936
2023-02-17T00:01:31.000Z,98937
2023-02-17T00:03:38.000Z,98933
2023-02-17T00:06:29.000Z,98934
2023-02-17T00:07:55.000Z,98934
2023-02-17T00:10:01.000Z,98928
2023-02-17T00:11:28.000Z,98927
2023-02-17T00:13:34.000Z,98922
2023-02-17T00:15:01.000Z,98921
2023-02-17T00:17:07.000Z,98919
2023-02-17T00:18:33.000Z,98916
2023-02-17T00:20:39.000Z,98915
2023-02-17T00:22:06.000Z,98917
2023-02-17T00:24:12.000Z,98909
2023-02-17T00:25:39.000Z,98912
2023-02-17T00:27:45.000Z,98907
2023-02-17T00:29:11.000Z,98913
2023-02-17T00:31:17.000Z,98917
2023-02-17T00:32:44.000Z,98914
2023-02-17T00:34:50.000Z,98914
2023-02-17T00:36:17.000Z,98919
2023-02-17T00:38:23.000Z,98917
2023-02-17T00:39:49.000Z,98915
2023-02-17T00:41:55.000Z,98919
2023-02-17T00:44:47.000Z,98920
2023-02-17T00:46:13.000Z,98914
2023-02-17T00:48:19.000Z,98921
2023-02-17T00:49:46.000Z,98919
2023-02-17T00:51:52.000Z,98923
2023-02-17T00:53:19.000Z,98924
2023-02-17T00:55:25.000Z,98923
2023-02-17T00:56:51.000Z,98922
2023-02-17T00:58:57.000Z,98930
2023-02-17T01:00:24.000Z,98925
2023-02-17T01:02:30.000Z,98928
2023-02-17T01:03:56.000Z,98928
2023-02-17T01:06:03.000Z,98928
2023-02-17T01:07:29.000Z,98932
2023-02-17T01:09:36.000Z,98927
2023-02-17T01:11:02.000Z,98934
2023-02-17T01:13:08.000Z,98929
2023-02-17T01:14:35.000Z,98929
2023-02-17T01:16:41.000Z,98928
2023-02-17T01:18:07.000Z,98926
2023-02-17T01:20:13.000Z,98924
2023-02-17T01:23:04.000Z,98927
2023-02-17T01:24:31.000Z,98922
2023-02-17T01:26:37.000Z,98918
2023-02-17T01:28:04.000Z,98923
2023-02-17T01:30:10.000Z,98920
2023-02-17T01:31:36.000Z,98924
2023-02-17T01:33:42.000Z,98920
2023-02-17T01:35:09.000Z,98920
2023-02-17T01:37:15.000Z,98914
2023-02-17T01:38:42.000Z,98910
2023-02-17T01:40:48.000Z,98907
2023-02-17T01:42:14.000Z,98901
2023-02-17T01:44:20.000Z,98903
2023-02-17T01:45:47.000Z,98901
2023-02-17T01:47:53.000Z,98901
2023-02-17T01:49:19.000Z,98897
2023-02-17T01:51:26.000Z,98899
2023-02-17T01:52:52.000Z,98897
2023-02-17T01:54:58.000Z,98894
2023-02-17T01:56:25.000Z,98892
2023-02-17T01:58:31.000Z,98887
2023-02-17T02:01:22.000Z,98878
2023-02-17T02:02:48.000Z,98873
2023-02-17T02:04:55.000Z,98868
2023-02-17T02:06:21.000Z,98851
2023-02-17T02:08:27.000Z,98846
2023-02-17T02:09:54.000Z,98841
2023-02-17T02:12:00.000Z,98837
2023-02-17T02:13:26.000Z,98838
2023-02-17T02:15:33.000Z,98838
2023-02-17T02:16:59.000Z,98834
2023-02-17T02:19:05.000Z,98830
2023-02-17T02:20:32.000Z,98827
2023-02-17T02:22:38.000Z,98825
2023-02-17T02:24:04.000Z,98822
2023-02-17T02:26:10.000Z,98824
2023-02-17T02:27:37.000Z,98821
2023-02-17T02:29:43.000Z,98814
2023-02-17T02:31:10.000Z,98818
2023-02-17T02:33:16.000Z,98812
2023-02-17T02:34:42.000Z,98814
2023-02-17T02:36:48.000Z,98808
2023-02-17T02:39:40.000Z,98809
2023-02-17T02:41:06.000Z,98813
2023-02-17T02:43:12.000Z,98813
2023-02-17T02:44:39.000Z,98819
2023-02-17T02:46:45.000Z,98809
2023-02-17T02:48:11.000Z,98811
2023-02-17T02:50:17.000Z,98808
2023-02-17T02:51:44.000Z,98806
2023-02-17T02:53:50.000Z,98807
2023-02-17T02:55:17.000Z,98810
2023-02-17T02:57:23.000Z,98807
2023-02-17T02:58:49.000Z,98806
2023-02-17T03:00:56.000Z,98802
2023-02-17T03:02:22.000Z,98801
2023-02-17T03:04:28.000Z,98801
2023-02-17T03:05:55.000Z,98800
2023-02-17T03:08:01.000Z,98794
2023-02-17T03:09:27.000Z,98791
2023-02-17T03:11:33.000Z,98789
2023-02-17T03:13:00.000Z,98790
2023-02-17T03:15:06.000Z,98788
2023-02-17T03:17:57.000Z,98784
2023-02-17T03:19:24.000Z,98781
2023-02-17T03:21:30.000Z,98779
2023-02-17T03:22:56.000Z,98778
2023-02-17T03:25:02.000Z,98776
2023-02-17T03:26:29.000Z,98778
2023-02-17T03:28:35.000Z,98775
2023-02-17T03:30:01.000Z,98770
2023-02-17T03:32:08.000Z,98777
2023-02-17T03:33:34.000Z,98777
2023-02-17T03:35:41.000Z,98778
2023-02-17T03:37:07.000Z,98780
2023-02-17T03:39:13.000Z,98781
2023-02-17T03:40:40.000Z,98789
2023-02-17T03:42:46.000Z,98793
2023-02-17T03:44:12.000Z,98787
2023-02-17T03:46:19.000Z,98783
2023-02-17T03:47:45.000Z,98786
2023-02-17T03:49:51.000Z,98787
2023-02-17T03:51:18.000Z,98784
2023-02-17T03:53:24.000Z,98787
2023-02-17T03:56:15.000Z,98788
2023-02-17T03:57:42.000Z,98789
2023-02-17T03:59:48.000Z,98792
2023-02-17T04:01:14.000Z,98800
2023-02-17T04:03:20.000Z,98795
2023-02-17T04:04:47.000Z,98797
2023-02-17T04:06:53.000Z,98789
2023-02-17T04:08:19.000Z,98793
2023-02-17T04:10:25.000Z,98792
2023-02-17T04:11:52.000Z,98794
2023-02-17T04:13:58.000Z,98793
2023-02-17T04:15:24.000Z,98796
2023-02-17T04:17:31.000Z,98797
2023-02-17T04:18:57.000Z,98793
2023-02-17T04:21:03.000Z,98799
2023-02-17T04:22:30.000Z,98794
2023-02-17T04:24:36.000Z,98795
2023-02-17T04:26:02.000Z,98793
2023-02-17T04:28:09.000Z,98790
2023-02-17T04:29:35.000Z,98794
2023-02-17T04:31:41.000Z,98792
2023-02-17T04:34:33.000Z,98789
2023-02-17T04:35:59.000Z,98789
2023-02-17T04:38:05.000Z,98783
2023-02-17T04:39:32.000Z,98781
2023-02-17T04:41:38.000Z,98781
2023-02-17T04:43:04.000Z,98780
2023-02-17T04:45:11.000Z,98780
2023-02-17T04:46:37.000Z,98781
2023-02-17T04:48:43.000Z,98778
2023-02-17T04:50:10.000Z,98776
2023-02-17T04:52:16.000Z,98770
2023-02-17T04:53:42.000Z,98771
2023-02-17T04:55:48.000Z,98772
2023-02-17T04:57:15.000Z,98777
2023-02-17T04:59:21.000Z,98775
2023-02-17T05:00:49.000Z,98776
2023-02-17T05:02:56.000Z,98774
2023-02-17T05:04:22.000Z,98766
2023-02-17T05:06:28.000Z,98765
2023-02-17T05:07:55.000Z,98764
2023-02-17T05:10:01.000Z,98764
2023-02-17T05:12:52.000Z,98765
2023-02-17T05:14:19.000Z,98770
2023-02-17T05:16:25.000Z,98776
2023-02-17T05:17:51.000Z,98777
2023-02-17T05:19:57.000Z,98773
2023-02-17T05:21:24.000Z,98774
2023-02-17T05:23:30.000Z,98780
2023-02-17T05:24:56.000Z,98771
2023-02-17T05:27:02.000Z,98775
2023-02-17T05:28:29.000Z,98778
2023-02-17T05:30:35.000Z,98778
2023-02-17T05:32:01.000Z,98781
2023-02-17T05:34:08.000Z,98778
2023-02-17T05:35:34.000Z,98778
2023-02-17T05:37:41.000Z,98784
2023-02-17T05:39:07.000Z,98787
2023-02-17T05:41:13.000Z,98787
2023-02-17T05:42:40.000Z,98791
2023-02-17T05:44:46.000Z,98790
2023-02-17T05:46:12.000Z,98787
2023-02-17T05:48:18.000Z,98794
2023-02-17T05:51:09.000Z,98785
2023-02-17T05:52:36.000Z,98778
2023-02-17T05:54:42.000Z,98774
2023-02-17T05:56:09.000Z,98766
2023-02-17T05:58:15.000Z,98758
2023-02-17T05:59:41.000Z,98755
2023-02-17T06:01:48.000Z,98751
2023-02-17T06:03:14.000Z,98746
2023-02-17T06:05:20.000Z,98746
2023-02-17T06:06:47.000Z,98748
2023-02-17T06:08:53.000Z,98751
2023-02-17T06:10:20.000Z,98751
2023-02-17T06:12:26.000Z,98752
2023-02-17T06:13:52.000Z,98761
2023-02-17T06:15:58.000Z,98765
2023-02-17T06:17:25.000Z,98765
2023-02-17T06:19:31.000Z,98766
2023-02-17T06:20:58.000Z,98764
2023-02-17T06:23:04.000Z,98755
2023-02-17T06:24:30.000Z,98751
2023-02-17T06:26:37.000Z,98746
2023-02-17T06:29:28.000Z,98760
2023-02-17T06:30:54.000Z,98767
2023-02-17T06:33:00.000Z,98770
2023-02-17T06:34:27.000Z,98775
2023-02-17T06:36:33.000Z,98775
2023-02-17T06:37:59.000Z,98770
2023-02-17T06:40:06.000Z,98769
2023-02-17T06:41:32.000Z,98770
2023-02-17T06:43:38.000Z,98776
2023-02-17T06:45:05.000Z,98774
2023-02-17T06:47:11.000Z,98761
2023-02-17T06:48:38.000Z,98754
2023-02-17T06:50:44.000Z,98762
2023-02-17T06:52:10.000Z,98766
2023-02-17T06:54:16.000Z,98758
2023-02-17T06:55:43.000Z,98767
2023-02-17T06:57:49.000Z,98771
2023-02-17T06:59:15.000Z,98768
2023-02-17T07:01:21.000Z,98767
2023-02-17T07:02:48.000Z,98758
2023-02-17T07:04:54.000Z,98757
2023-02-17T07:07:45.000Z,98760
2023-02-17T07:09:12.000Z,98766
2023-02-17T07:11:18.000Z,98770
2023-02-17T07:12:44.000Z,98766
2023-02-17T07:14:50.000Z,98769
2023-02-17T07:16:17.000Z,98775
2023-02-17T07:18:23.000Z,98771
2023-02-17T07:19:50.000Z,98776
2023-02-17T07:21:56.000Z,98778
2023-02-17T07:23:22.000Z,98776
2023-02-17T07:25:28.000Z,98777
2023-02-17T07:26:55.000Z,98779
2023-02-17T07:29:01.000Z,98781
2023-02-17T07:30:28.000Z,98786
2023-02-17T07:32:34.000Z,98788
2023-02-17T07:34:00.000Z,98789
2023-02-17T07:36:07.000Z,98793
2023-02-17T07:37:33.000Z,98787
2023-02-17T07:39:40.000Z,98781
2023-02-17T07:41:06.000Z,98771
2023-02-17T07:43:12.000Z,98763
2023-02-17T07:46:03.000Z,98767
2023-02-17T07:47:30.000Z,98775
2023-02-17T07:49:36.000Z,98774
2023-02-17T07:51:03.000Z,98767
2023-02-17T07:53:09.000Z,98772
2023-02-17T07:54:35.000Z,98772
2023-02-17T07:56:41.000Z,98780
2023-02-17T07:58:08.000Z,98779
2023-02-17T08:00:14.000Z,98775
2023-02-17T08:01:40.000Z,98775
2023-02-17T08:03:46.000Z,98773
2023-02-17T08:05:13.000Z,98777
2023-02-17T08:07:19.000Z,98781
2023-02-17T08:08:45.000Z,98784
2023-02-17T08:10:52.000Z,98784
2023-02-17T08:12:18.000Z,98783
2023-02-17T08:14:24.000Z,98774
2023-02-17T08:15:51.000Z,98782
2023-02-17T08:17:57.000Z,98784
2023-02-17T08:19:23.000Z,98781
2023-02-17T08:21:30.000Z,98777
2023-02-17T08:24:21.000Z,98781
2023-02-17T08:25:47.000Z,98779
2023-02-17T08:27:53.000Z,98770
2023-02-17T08:29:20.000Z,98781
2023-02-17T08:31:26.000Z,98778
2023-02-17T08:32:53.000Z,98774
2023-02-17T08:34:59.000Z,98771
2023-02-17T08:36:25.000Z,98775
2023-02-17T08:38:32.000Z,98772
2023-02-17T08:39:58.000Z,98773
2023-02-17T08:42:04.000Z,98769
2023-02-17T08:43:31.000Z,98762
2023-02-17T08:45:37.000Z,98752
2023-02-17T08:47:03.000Z,98752
2023-02-17T08:49:09.000Z,98743
2023-02-17T08:50:36.000Z,98740
2023-02-17T08:52:42.000Z,98746
2023-02-17T08:54:09.000Z,98744
2023-02-17T08:56:15.000Z,98743
2023-02-17T08:57:41.000Z,98744
2023-02-17T08:59:47.000Z,98748
2023-02-17T09:02:39.000Z,98754
2023-02-17T09:04:05.000Z,98747
2023-02-17T09:06:11.000Z,98747
2023-02-17T09:07:38.000Z,98746
2023-02-17T09:09:44.000Z,98740
2023-02-17T09:11:11.000Z,98744
2023-02-17T09:13:17.000Z,98746
2023-02-17T09:14:43.000Z,98743
2023-02-17T09:16:49.000Z,98755
2023-02-17T09:18:16.000Z,98753
2023-02-17T09:20:22.000Z,98757
2023-02-17T09:21:51.000Z,98751
2023-02-17T09:23:57.000Z,98753
2023-02-17T09:25:24.000Z,98755
2023-02-17T09:27:30.000Z,98739
2023-02-17T09:28:57.000Z,98740
2023-02-17T09:31:03.000Z,98747
2023-02-17T09:32:30.000Z,98744
2023-02-17T09:34:36.000Z,98737
2023-02-17T09:36:03.000Z,98740
2023-02-17T09:38:09.000Z,98745
2023-02-17T09:41:00.000Z,98746
2023-02-17T09:42:26.000Z,98738
2023-02-17T09:44:32.000Z,98731
2023-02-17T09:45:59.000Z,98724
2023-02-17T09:48:05.000Z,98720
2023-02-17T09:49:32.000Z,98724
2023-02-17T09:51:38.000Z,98729
2023-02-17T09:53:04.000Z,98727
2023-02-17T09:55:10.000Z,98724
2023-02-17T09:56:37.000Z,98719
2023-02-17T09:58:43.000Z,98723
2023-02-17T10:00:10.000Z,98728
2023-02-17T10:02:16.000Z,98737
2023-02-17T10:03:42.000Z,98742
2023-02-17T10:05:48.000Z,98735
2023-02-17T10:07:15.000Z,98737
2023-02-17T10:09:21.000Z,98742
2023-02-17T10:10:48.000Z,98738
2023-02-17T10:12:54.000Z,98760
2023-02-17T10:14:20.000Z,98747
2023-02-17T10:16:27.000Z,98754
2023-02-17T10:19:18.000Z,98760
2023-02-17T10:20:45.000Z,98757
2023-02-17T10:22:51.000Z,98761
2023-02-17T10:24:17.000Z,98759
2023-02-17T10:26:23.000Z,98763
2023-02-17T10:27:50.000Z,98758
2023-02-17T10:29:56.000Z,98760
2023-02-17T10:31:23.000Z,98770
2023-02-17T10:33:29.000Z,98763
2023-02-17T10:34:55.000Z,98771
2023-02-17T10:37:02.000Z,98776
2023-02-17T10:38:28.000Z,98773
2023-02-17T10:40:34.000Z,98785
2023-02-17T10:42:01.000Z,98784
2023-02-17T10:44:07.000Z,98771
2023-02-17T10:45:34.000Z,98768
2023-02-17T10:47:40.000Z,98773
2023-02-17T10:49:06.000Z,98775
2023-02-17T10:51:13.000Z,98767
2023-02-17T10:52:39.000Z,98770
2023-02-17T10:54:46.000Z,98760
2023-02-17T10:57:37.000Z,98750
2023-02-17T10:59:03.000Z,98754
2023-02-17T11:01:09.000Z,98766
2023-02-17T11:02:36.000Z,98759
2023-02-17T11:04:42.000Z,98750
2023-02-17T11:06:09.000Z,98744
2023-02-17T11:08:15.000Z,98739
2023-02-17T11:09:42.000Z,98738
2023-02-17T11:11:48.000Z,98742
2023-02-17T11:13:14.000Z,98741
2023-02-17T11:15:20.000Z,98742
2023-02-17T11:16:47.000Z,98737
2023-02-17T11:18:53.000Z,98732
2023-02-17T11:20:19.000Z,98740
2023-02-17T11:22:26.000Z,98729
2023-02-17T11:23:52.000Z,98723
2023-02-17T11:25:58.000Z,98732
2023-02-17T11:27:25.000Z,98718
2023-02-17T11:29:31.000Z,98714
2023-02-17T11:30:57.000Z,98717
2023-02-17T11:33:04.000Z,98714
2023-02-17T11:35:54.000Z,98718
2023-02-17T11:37:21.000Z,98709
2023-02-17T11:39:27.000Z,98712
2023-02-17T11:40:53.000Z,98707
2023-02-17T11:43:00.000Z,98703
2023-02-17T11:44:26.000Z,98704
2023-02-17T11:46:32.000Z,98704
2023-02-17T11:47:59.000Z,98710
2023-02-17T11:50:05.000Z,98705
2023-02-17T11:51:31.000Z,98705
2023-02-17T11:53:38.000Z,98699
2023-02-17T11:55:04.000Z,98708
2023-02-17T11:57:10.000Z,98707
2023-02-17T11:58:37.000Z,98700
2023-02-17T12:00:43.000Z,98692
2023-02-17T12:02:10.000Z,98693
2023-02-17T12:04:16.000Z,98689
2023-02-17T12:05:42.000Z,98683
2023-02-17T12:07:48.000Z,98687
2023-02-17T12:09:15.000Z,98672
2023-02-17T12:11:21.000Z,98673
2023-02-17T12:14:12.000Z,98665
2023-02-17T12:15:39.000Z,98664
2023-02-17T12:17:45.000Z,98662
2023-02-17T12:19:11.000Z,98657
2023-02-17T12:21:17.000Z,98664
2023-02-17T12:22:44.000Z,98653
2023-02-17T12:24:50.000Z,98657
2023-02-17T12:26:16.000Z,98656
2023-02-17T12:28:23.000Z,98653
2023-02-17T12:29:49.000Z,98655
2023-02-17T12:31:55.000Z,98658
2023-02-17T12:33:22.000Z,98654
2023-02-17T12:35:28.000Z,98647
2023-02-17T12:36:55.000Z,98645
2023-02-17T12:39:01.000Z,98646
2023-02-17T12:40:27.000Z,98640
2023-02-17T12:42:33.000Z,98636
2023-02-17T12:44:00.000Z,98636
2023-02-17T12:46:06.000Z,98626
2023-02-17T12:47:33.000Z,98621
2023-02-17T12:49:39.000Z,98628
2023-02-17T12:52:30.000Z,98628
2023-02-17T12:53:57.000Z,98630
2023-02-17T12:56:03.000Z,98636
2023-02-17T12:57:30.000Z,98630
2023-02-17T12:59:36.000Z,98639
2023-02-17T13:01:02.000Z,98637
2023-02-17T13:03:11.000Z,98622
2023-02-17T13:04:37.000Z,98623
2023-02-17T13:06:44.000Z,98616
2023-02-17T13:08:10.000Z,98618
2023-02-17T13:10:16.000Z,98622
2023-02-17T13:11:43.000Z,98620
2023-02-17T13:13:49.000Z,98611
2023-02-17T13:15:15.000Z,98605
2023-02-17T13:17:21.000Z,98608
2023-02-17T13:18:48.000Z,98603
2023-02-17T13:20:56.000Z,98590
2023-02-17T13:22:22.000Z,98589
2023-02-17T13:24:29.000Z,98603
2023-02-17T13:25:55.000Z,98608
2023-02-17T13:28:01.000Z,98610
2023-02-17T13:30:52.000Z,98616
2023-02-17T13:32:19.000Z,98621
2023-02-17T13:34:25.000Z,98611
2023-02-17T13:35:51.000Z,98626
2023-02-17T13:37:58.000Z,98618
2023-02-17T13:39:24.000Z,98614
2023-02-17T13:41:30.000Z,98609
2023-02-17T13:42:57.000Z,98607
2023-02-17T13:45:03.000Z,98603
2023-02-17T13:46:29.000Z,98611
2023-02-17T13:48:36.000Z,98604
2023-02-17T13:50:02.000Z,98591
2023-02-17T13:52:08.000Z,98590
2023-02-17T13:53:35.000Z,98588
2023-02-17T13:55:43.000Z,98588
2023-02-17T13:57:10.000Z,98586
2023-02-17T13:59:16.000Z,98575
2023-02-17T14:00:42.000Z,98573
2023-02-17T14:02:49.000Z,98575
2023-02-17T14:04:15.000Z,98583
2023-02-17T14:06:21.000Z,98570
2023-02-17T14:09:13.000Z,98581
2023-02-17T14:10:39.000Z,98570
2023-02-17T14:12:45.000Z,98578
2023-02-17T14:14:12.000Z,98568
2023-02-17T14:16:18.000Z,98567
2023-02-17T14:17:45.000Z,98573
2023-02-17T14:19:51.000Z,98581
2023-02-17T14:21:17.000Z,98571
2023-02-17T14:23:23.000Z,98576
2023-02-17T14:24:50.000Z,98581
2023-02-17T14:26:56.000Z,98575
2023-02-17T14:28:22.000Z,98575
2023-02-17T14:30:29.000Z,98577
2023-02-17T14:31:55.000Z,98582
2023-02-17T14:34:02.000Z,98573
2023-02-17T14:35:28.000Z,98595
2023-02-17T14:37:34.000Z,98588
2023-02-17T14:39:01.000Z,98595
2023-02-17T14:41:07.000Z,98598
2023-02-17T14:42:34.000Z,98601
2023-02-17T14:44:40.000Z,98604
2023-02-17T14:47:32.000Z,98599
2023-02-17T14:48:58.000Z,98606
2023-02-17T14:51:05.000Z,98600
2023-02-17T14:52:31.000Z,98603
2023-02-17T14:54:37.000Z,98605
2023-02-17T14:56:04.000Z,98597
2023-02-17T14:58:10.000Z,98593
2023-02-17T14:59:37.000Z,98600
2023-02-17T15:01:43.000Z,98607
2023-02-17T15:03:10.000Z,98594
2023-02-17T15:05:16.000Z,98600
2023-02-17T15:06:42.000Z,98597
2023-02-17T15:08:48.000Z,98596
2023-02-17T15:10:15.000Z,98592
2023-02-17T15:12:21.000Z,98595
2023-02-17T15:13:47.000Z,98590
2023-02-17T15:15:54.000Z,98590
2023-02-17T15:17:20.000Z,98598
2023-02-17T15:19:26.000Z,98593
2023-02-17T15:20:53.000Z,98587
2023-02-17T15:22:59.000Z,98585
2023-02-17T15:25:50.000Z,98581
2023-02-17T15:27:16.000Z,98578
2023-02-17T15:29:22.000Z,98581
2023-02-17T15:30:49.000Z,98580
2023-02-17T15:32:55.000Z,98582
2023-02-17T15:34:22.000Z,98581
2023-02-17T15:36:28.000Z,98576
2023-02-17T15:37:54.000Z,98571
2023-02-17T15:40:00.000Z,98578
2023-02-17T15:41:27.000Z,98580
2023-02-17T15:45:03.000Z,98586
2023-02-17T15:47:09.000Z,98581
2023-02-17T15:48:35.000Z,98586
2023-02-17T15:50:41.000Z,98594
2023-02-17T15:52:08.000Z,98586
2023-02-17T15:54:14.000Z,98585
2023-02-17T15:55:41.000Z,98594
2023-02-17T15:57:47.000Z,98573
2023-02-17T15:59:13.000Z,98577
2023-02-17T16:01:20.000Z,98575
2023-02-17T16:04:11.000Z,98583
2023-02-17T16:05:37.000Z,98587
2023-02-17T16:07:43.000Z,98587
2023-02-17T16:09:10.000Z,98592
2023-02-17T16:11:16.000Z,98576
2023-02-17T16:12:43.000Z,98582
2023-02-17T16:14:49.000Z,98575
2023-02-17T16:16:15.000Z,98574
2023-02-17T16:18:21.000Z,98591
2023-02-17T16:19:48.000Z,98597
2023-02-17T16:21:54.000Z,98595
2023-02-17T16:23:20.000Z,98592
2023-02-17T16:25:26.000Z,98582
2023-02-17T16:26:53.000Z,98578
2023-02-17T16:28:59.000Z,98593
2023-02-17T16:30:26.000Z,98595
2023-02-17T16:32:32.000Z,98593
2023-02-17T16:34:01.000Z,98588
2023-02-17T16:36:07.000Z,98593
2023-02-17T16:37:34.000Z,98602
2023-02-17T16:39:40.000Z,98596
2023-02-17T16:42:32.000Z,98610
2023-02-17T16:43:58.000Z,98619
2023-02-17T16:46:04.000Z,98603
2023-02-17T16:47:31.000Z,98611
2023-02-17T16:49:37.000Z,98612
2023-02-17T16:51:04.000Z,98616
2023-02-17T16:53:10.000Z,98616
2023-02-17T16:54:36.000Z,98604
2023-02-17T16:56:42.000Z,98615
2023-02-17T16:58:09.000Z,98618
2023-02-17T17:00:15.000Z,98626
2023-02-17T17:01:41.000Z,98618
2023-02-17T17:03:47.000Z,98626
2023-02-17T17:05:14.000Z,98625
2023-02-17T17:07:20.000Z,98630
2023-02-17T17:08:47.000Z,98642
2023-02-17T17:10:53.000Z,98641
2023-02-17T17:12:19.000Z,98644
2023-02-17T17:14:25.000Z,98643
2023-02-17T17:15:52.000Z,98650
2023-02-17T17:17:58.000Z,98658
2023-02-17T17:20:49.000Z,98657
2023-02-17T17:22:16.000Z,98658
2023-02-17T17:24:22.000Z,98653
2023-02-17T17:25:48.000Z,98649
2023-02-17T17:27:55.000Z,98654
2023-02-17T17:29:21.000Z,98658
2023-02-17T17:31:27.000Z,98670
2023-02-17T17:32:54.000Z,98679
2023-02-17T17:35:00.000Z,98677
2023-02-17T17:36:27.000Z,98684
2023-02-17T17:38:33.000Z,98690
2023-02-17T17:39:59.000Z,98692
2023-02-17T17:42:05.000Z,98690
2023-02-17T17:43:32.000Z,98699
2023-02-17T17:45:38.000Z,98698
2023-02-17T17:47:04.000Z,98705
2023-02-17T17:49:10.000Z,98719
2023-02-17T17:50:37.000Z,98720
2023-02-17T17:52:43.000Z,98727
2023-02-17T17:54:09.000Z,98727
2023-02-17T17:56:16.000Z,98730
2023-02-17T17:59:07.000Z,98743
2023-02-17T18:00:33.000Z,98751
2023-02-17T18:02:39.000Z,98751
2023-02-17T18:04:06.000Z,98753
2023-02-17T18:06:12.000Z,98761
2023-02-17T18:07:39.000Z,98752
2023-02-17T18:09:45.000Z,98751
2023-02-17T18:11:11.000Z,98764
2023-02-17T18:13:17.000Z,98765
2023-02-17T18:14:44.000Z,98764
2023-02-17T18:16:50.000Z,98772
2023-02-17T18:18:16.000Z,98776
2023-02-17T18:20:22.000Z,98776
2023-02-17T18:21:49.000Z,98779
2023-02-17T18:23:55.000Z,98784
2023-02-17T18:25:21.000Z,98782
2023-02-17T18:27:28.000Z,98789
2023-02-17T18:28:54.000Z,98790
2023-02-17T18:31:00.000Z,98792
2023-02-17T18:32:27.000Z,98797
2023-02-17T18:34:33.000Z,98801
2023-02-17T18:37:24.000Z,98802
2023-02-17T18:38:51.000Z,98807
2023-02-17T18:40:57.000Z,98813
2023-02-17T18:42:24.000Z,98814
2023-02-17T18:44:30.000Z,98811
2023-02-17T18:45:56.000Z,98820
2023-02-17T18:48:02.000Z,98817
2023-02-17T18:49:29.000Z,98823
2023-02-17T18:51:35.000Z,98824
2023-02-17T18:53:02.000Z,98830
2023-02-17T18:55:11.000Z,98829
2023-02-17T18:56:37.000Z,98829
2023-02-17T18:58:43.000Z,98839
2023-02-17T19:00:10.000Z,98841
2023-02-17T19:02:16.000Z,98844
2023-02-17T19:03:43.000Z,98849
2023-02-17T19:05:49.000Z,98858
2023-02-17T19:07:15.000Z,98854
2023-02-17T19:09:21.000Z,98869
2023-02-17T19:10:48.000Z,98854
2023-02-17T19:12:54.000Z,98859
2023-02-17T19:15:45.000Z,98865
2023-02-17T19:17:11.000Z,98863
2023-02-17T19:19:18.000Z,98866
2023-02-17T19:20:44.000Z,98875
2023-02-17T19:22:50.000Z,98871
2023-02-17T19:24:17.000Z,98867
2023-02-17T19:26:23.000Z,98867
2023-02-17T19:27:49.000Z,98871
2023-02-17T19:29:55.000Z,98870
2023-02-17T19:31:22.000Z,98863
2023-02-17T19:33:28.000Z,98867
2023-02-17T19:34:55.000Z,98869
2023-02-17T19:37:01.000Z,98876
2023-02-17T19:38:27.000Z,98874
2023-02-17T19:40:33.000Z,98875
2023-02-17T19:42:00.000Z,98884
2023-02-17T19:44:06.000Z,98881
2023-02-17T19:45:33.000Z,98885
2023-02-17T19:47:39.000Z,98885
2023-02-17T19:49:05.000Z,98888
2023-02-17T19:51:11.000Z,98890
2023-02-17T19:54:03.000Z,98895
2023-02-17T19:55:29.000Z,98890
2023-02-17T19:57:35.000Z,98903
2023-02-17T19:59:02.000Z,98909
2023-02-17T20:01:08.000Z,98914
2023-02-17T20:02:34.000Z,98911
2023-02-17T20:04:41.000Z,98917
2023-02-17T20:06:07.000Z,98917
2023-02-17T20:08:14.000Z,98923
2023-02-17T20:09:40.000Z,98921
2023-02-17T20:11:47.000Z,98921
2023-02-17T20:13:13.000Z,98923
2023-02-17T20:15:19.000Z,98924
2023-02-17T20:16:46.000Z,98925
2023-02-17T20:18:52.000Z,98920
2023-02-17T20:20:18.000Z,98920
2023-02-17T20:22:24.000Z,98916
2023-02-17T20:23:51.000Z,98918
2023-02-17T20:25:57.000Z,98923
2023-02-17T20:27:24.000Z,98918
2023-02-17T20:29:31.000Z,98921
2023-02-17T20:32:22.000Z,98922
2023-02-17T20:33:48.000Z,98909
2023-02-17T20:35:55.000Z,98919
2023-02-17T20:37:21.000Z,98917
2023-02-17T20:39:27.000Z,98921
2023-02-17T20:40:54.000Z,98924
2023-02-17T20:43:00.000Z,98932
2023-02-17T20:44:26.000Z,98927
2023-02-17T20:46:34.000Z,98919
2023-02-17T20:48:00.000Z,98919
2023-02-17T20:50:06.000Z,98917
2023-02-17T20:51:33.000Z,98914
2023-02-17T20:53:39.000Z,98912
2023-02-17T20:55:05.000Z,98917
2023-02-17T20:57:12.000Z,98912
2023-02-17T20:58:38.000Z,98914
2023-02-17T21:00:44.000Z,98913
2023-02-17T21:02:11.000Z,98918
2023-02-17T21:04:17.000Z,98922
2023-02-17T21:05:43.000Z,98921
2023-02-17T21:07:49.000Z,98928
2023-02-17T21:10:41.000Z,98933
2023-02-17T21:12:07.000Z,98933
2023-02-17T21:14:13.000Z,98934
2023-02-17T21:15:40.000Z,98932
2023-02-17T21:17:46.000Z,98939
2023-02-17T21:19:12.000Z,98944
2023-02-17T21:21:18.000Z,98942
2023-02-17T21:22:45.000Z,98947
2023-02-17T21:24:51.000Z,98947
2023-02-17T21:26:17.000Z,98946
2023-02-17T21:28:24.000Z,98954
2023-02-17T21:29:50.000Z,98950
2023-02-17T21:31:56.000Z,98944
2023-02-17T21:33:23.000Z,98945
2023-02-17T21:35:29.000Z,98942
2023-02-17T21:36:56.000Z,98945
2023-02-17T21:39:02.000Z,98941
2023-02-17T21:40:28.000Z,98938
2023-02-17T21:42:35.000Z,98932
2023-02-17T21:44:01.000Z,98932
2023-02-17T21:46:07.000Z,98928
2023-02-17T21:48:59.000Z,98926
2023-02-17T21:50:25.000Z,98932
2023-02-17T21:52:31.000Z,98933
2023-02-17T21:53:58.000Z,98936
2023-02-17T21:56:04.000Z,98947
2023-02-17T21:57:31.000Z,98948
2023-02-17T21:59:37.000Z,98950
2023-02-17T22:01:03.000Z,98945
2023-02-17T22:03:10.000Z,98944
2023-02-17T22:04:36.000Z,98937
2023-02-17T22:06:42.000Z,98943
2023-02-17T22:08:09.000Z,98943
2023-02-17T22:10:15.000Z,98939
2023-02-17T22:11:42.000Z,98941
2023-02-17T22:13:48.000Z,98933
2023-02-17T22:15:14.000Z,98933
2023-02-17T22:17:20.000Z,98922
2023-02-17T22:18:47.000Z,98919
2023-02-17T22:20:53.000Z,98919
2023-02-17T22:22:19.000Z,98915
2023-02-17T22:24:26.000Z,98914
2023-02-17T22:27:17.000Z,98929
2023-02-17T22:28:43.000Z,98925
2023-02-17T22:30:49.000Z,98924
2023-02-17T22:32:16.000Z,98919
2023-02-17T22:34:22.000Z,98920
2023-02-17T22:35:49.000Z,98916
2023-02-17T22:37:55.000Z,98923
2023-02-17T22:39:21.000Z,98926
2023-02-17T22:41:27.000Z,98934
2023-02-17T22:42:54.000Z,98936
2023-02-17T22:45:00.000Z,98932
2023-02-17T22:46:26.000Z,98929
2023-02-17T22:48:33.000Z,98929
2023-02-17T22:49:59.000Z,98935
2023-02-17T22:52:06.000Z,98940
2023-02-17T22:53:32.000Z,98932
2023-02-17T22:55:38.000Z,98938
2023-02-17T22:57:05.000Z,98937
2023-02-17T22:59:11.000Z,98933
2023-02-17T23:00:37.000Z,98938
2023-02-17T23:02:43.000Z,98933
2023-02-17T23:05:34.000Z,98947
2023-02-17T23:07:01.000Z,98943
2023-02-17T23:09:07.000Z,98947
2023-02-17T23:10:33.000Z,98950
2023-02-17T23:12:39.000Z,98950
2023-02-17T23:14:06.000Z,98955
2023-02-17T23:16:12.000Z,98963
2023-02-17T23:17:38.000Z,98958
2023-02-17T23:19:44.000Z,98967
2023-02-17T23:21:11.000Z,98965
2023-02-17T23:23:17.000Z,98966
2023-02-17T23:24:44.000Z,98968
2023-02-17T23:26:50.000Z,98969
2023-02-17T23:28:16.000Z,98969
2023-02-17T23:30:23.000Z,98973